PWSweather.com
Personal Weather Stations
Station Observations
40SURVLA
Villa La Angostura, Villa La AngosturaAR

Villa La AngosturaVilla La AngosturaAR

Lat: -40.7307002, Lon: -71.6769804799115

Elevation: 2400

Station Type: Netatmo

Latest ConditionsUpdated 2:16:48 PM GMT-03:57 Sunday, Nov 19, 2017
Currently Today's Max Today's Min Today's Average
Temperature 53.8°F12.1°C 53.8°F12.1°C 40.5°F4.7°C 46.0°F7.8°C
Dew Point 34.3°F1.3°C 39.9°F4.4°C 30.2°F-1.0°C 34.2°F1.2°C
Winds 3.1 mph SW5.0 kmh SW 3.1 mph SSW5.0 kmh SSW - 1.4 mph 2.3 kmh
Wind Gusts 8.7 mph14.0 kmh 9.8 mph15.8 kmh - -
Humidity 50% 81% 45% 69%
Pressure 30.07 in1018.3 mb 30.12 in1020.0 mb 30.06 in1017.9 mb -
Hour Temp Dew Point Humidity Winds Wind Gusts Pressure Precip Precip Rate Daily Precip Total
02:16 PM 53.8°F12.1°C 34.3°F1.3°C 50% 3.1 mph SW5.0 kmh SW 8.7 mph14.0 kmh 30.07 in1018.3 mb 0.00 in0.0 mm 0.00 in0.0 mm 0.00 in0.0 mm
01:56 PM 53.6°F12.0°C 33.8°F1.0°C 49% 2.5 mph SW4.0 kmh SW 9.8 mph15.8 kmh 30.06 in1017.9 mb 0.00 in0.0 mm 0.00 in0.0 mm 0.00 in0.0 mm
01:36 PM 53.4°F11.9°C 33.6°F0.9°C 49% 2.5 mph SW4.0 kmh SW 8.7 mph14.0 kmh 30.06 in1017.9 mb 0.00 in0.0 mm 0.00 in0.0 mm 0.00 in0.0 mm
01:16 PM 52.9°F11.6°C 32.7°F0.4°C 48% 2.5 mph SW4.0 kmh SW 6.9 mph11.1 kmh 30.07 in1018.3 mb 0.00 in0.0 mm 0.00 in0.0 mm 0.00 in0.0 mm
12:56 PM 52.2°F11.2°C 30.9°F-0.6°C 45% 3.1 mph SSW5.0 kmh SSW 9.4 mph15.1 kmh 30.08 in1018.6 mb 0.00 in0.0 mm 0.00 in0.0 mm 0.00 in0.0 mm
12:36 PM 51.8°F11.0°C 32.2°F0.1°C 49% 3.1 mph SSW5.0 kmh SSW 6.9 mph11.1 kmh 30.08 in1018.6 mb 0.00 in0.0 mm 0.00 in0.0 mm 0.00 in0.0 mm
12:16 PM 51.3°F10.7°C 31.6°F-0.2°C 49% 2.5 mph WSW4.0 kmh WSW 8.1 mph13.0 kmh 30.08 in1018.6 mb 0.00 in0.0 mm 0.00 in0.0 mm 0.00 in0.0 mm
11:56 AM 50.2°F10.1°C 30.2°F-1.0°C 48% 1.8 mph SSW2.9 kmh SSW 8.7 mph14.0 kmh 30.08 in1018.6 mb 0.00 in0.0 mm 0.00 in0.0 mm 0.00 in0.0 mm
11:36 AM 48.7°F9.3°C 30.4°F-0.9°C 52% 1.3 mph WSW2.1 kmh WSW 4.3 mph6.9 kmh 30.08 in1018.6 mb 0.00 in0.0 mm 0.00 in0.0 mm 0.00 in0.0 mm
11:16 AM 47.8°F8.8°C 30.4°F-0.9°C 54% 0.7 mph SW1.1 kmh SW 4.3 mph6.9 kmh 30.09 in1019.0 mb 0.00 in0.0 mm 0.00 in0.0 mm 0.00 in0.0 mm
10:56 AM 47.1°F8.4°C 31.3°F-0.4°C 58% 0.7 mph SSW1.1 kmh SSW 5.6 mph9.0 kmh 30.09 in1019.0 mb 0.00 in0.0 mm 0.00 in0.0 mm 0.00 in0.0 mm
10:36 AM 46.6°F8.1°C 31.8°F-0.1°C 61% 1.3 mph SW2.1 kmh SW 4.3 mph6.9 kmh 30.09 in1019.0 mb 0.00 in0.0 mm 0.00 in0.0 mm 0.00 in0.0 mm
10:16 AM 45.9°F7.7°C 31.6°F-0.2°C 62% 1.3 mph S2.1 kmh S 3.1 mph5.0 kmh 30.10 in1019.3 mb 0.00 in0.0 mm 0.00 in0.0 mm 0.00 in0.0 mm
09:56 AM 45.7°F7.6°C 32.5°F0.3°C 65% 1.3 mph SW2.1 kmh SW 4.9 mph7.9 kmh 30.11 in1019.6 mb 0.00 in0.0 mm 0.00 in0.0 mm 0.00 in0.0 mm
09:36 AM 45.3°F7.4°C 31.8°F-0.1°C 64% 1.3 mph SW2.1 kmh SW 5.6 mph9.0 kmh 30.11 in1019.6 mb 0.00 in0.0 mm 0.00 in0.0 mm 0.00 in0.0 mm
09:16 AM 44.6°F7.0°C 32.2°F0.1°C 67% 1.3 mph NW2.1 kmh NW 2.5 mph4.0 kmh 30.11 in1019.6 mb 0.00 in0.0 mm 0.00 in0.0 mm 0.00 in0.0 mm
08:56 AM 43.7°F6.5°C 32.2°F0.1°C 69% 1.3 mph SSW2.1 kmh SSW 4.3 mph6.9 kmh 30.11 in1019.6 mb 0.00 in0.0 mm 0.00 in0.0 mm 0.00 in0.0 mm
08:36 AM 43.2°F6.2°C 32.7°F0.4°C 72% 1.3 mph W2.1 kmh W 3.1 mph5.0 kmh 30.12 in1020.0 mb 0.00 in0.0 mm 0.00 in0.0 mm 0.00 in0.0 mm
08:07 AM 42.8°F6.0°C 32.7°F0.4°C 73% 0.7 mph NW1.1 kmh NW 3.1 mph5.0 kmh 30.12 in1020.0 mb 0.00 in0.0 mm 0.00 in0.0 mm 0.00 in0.0 mm
07:47 AM 41.9°F5.5°C 32.7°F0.4°C 75% 0.7 mph NNW1.1 kmh NNW 2.5 mph4.0 kmh 30.12 in1020.0 mb 0.00 in0.0 mm 0.00 in0.0 mm 0.00 in0.0 mm
07:26 AM 41.5°F5.3°C 33.1°F0.6°C 77% 0.7 mph NE1.1 kmh NE 2.5 mph4.0 kmh 30.12 in1020.0 mb 0.00 in0.0 mm 0.00 in0.0 mm 0.00 in0.0 mm
07:07 AM 41.2°F5.1°C 33.1°F0.6°C 78% 0.7 mph W1.1 kmh W 1.8 mph2.9 kmh 30.12 in1020.0 mb 0.00 in0.0 mm 0.00 in0.0 mm 0.00 in0.0 mm
06:46 AM 40.6°F4.8°C 32.9°F0.5°C 79% 1.3 mph NE2.1 kmh NE 3.1 mph5.0 kmh 30.11 in1019.6 mb 0.00 in0.0 mm 0.00 in0.0 mm 0.00 in0.0 mm
06:26 AM 40.5°F4.7°C 33.1°F0.6°C 80% 1.3 mph N2.1 kmh N 2.5 mph4.0 kmh 30.11 in1019.6 mb 0.00 in0.0 mm 0.00 in0.0 mm 0.00 in0.0 mm
06:06 AM 40.8°F4.9°C 33.4°F0.8°C 80% 0.7 mph NNE1.1 kmh NNE 2.5 mph4.0 kmh 30.11 in1019.6 mb 0.00 in0.0 mm 0.00 in0.0 mm 0.00 in0.0 mm
05:45 AM 41.4°F5.2°C 34.0°F1.1°C 80% 1.3 mph N2.1 kmh N 5.6 mph9.0 kmh 30.11 in1019.6 mb 0.00 in0.0 mm 0.00 in0.0 mm 0.00 in0.0 mm
05:25 AM 41.7°F5.4°C 34.0°F1.1°C 79% 1.3 mph N2.1 kmh N 3.1 mph5.0 kmh 30.11 in1019.6 mb 0.00 in0.0 mm 0.00 in0.0 mm 0.00 in0.0 mm
05:04 AM 42.1°F5.6°C 34.0°F1.1°C 78% 1.3 mph NE2.1 kmh NE 3.1 mph5.0 kmh 30.11 in1019.6 mb 0.00 in0.0 mm 0.00 in0.0 mm 0.00 in0.0 mm
04:45 AM 42.6°F5.9°C 34.5°F1.4°C 78% 1.3 mph W2.1 kmh W 3.1 mph5.0 kmh 30.10 in1019.3 mb 0.00 in0.0 mm 0.00 in0.0 mm 0.00 in0.0 mm
04:24 AM 43.5°F6.4°C 34.2°F1.2°C 75% 0.7 mph W1.1 kmh W 3.1 mph5.0 kmh 30.09 in1019.0 mb 0.00 in0.0 mm 0.00 in0.0 mm 0.00 in0.0 mm
04:04 AM 43.9°F6.6°C 34.2°F1.2°C 74% 1.3 mph SW2.1 kmh SW 3.1 mph5.0 kmh 30.09 in1019.0 mb 0.00 in0.0 mm 0.00 in0.0 mm 0.00 in0.0 mm
03:44 AM 44.2°F6.8°C 35.2°F1.8°C 76% 0.7 mph SW1.1 kmh SW 3.1 mph5.0 kmh 30.09 in1019.0 mb 0.00 in0.0 mm 0.00 in0.0 mm 0.00 in0.0 mm
03:24 AM 44.4°F6.9°C 36.3°F2.4°C 78% 0.7 mph NW1.1 kmh NW 3.1 mph5.0 kmh 30.09 in1019.0 mb 0.00 in0.0 mm 0.00 in0.0 mm 0.00 in0.0 mm
03:03 AM 45.0°F7.2°C 37.6°F3.1°C 80% 1.8 mph NNE2.9 kmh NNE 4.9 mph7.9 kmh 30.09 in1019.0 mb 0.00 in0.0 mm 0.00 in0.0 mm 0.00 in0.0 mm
02:43 AM 45.7°F7.6°C 38.3°F3.5°C 80% 1.3 mph NNW2.1 kmh NNW 1.8 mph2.9 kmh 30.09 in1019.0 mb 0.00 in0.0 mm 0.00 in0.0 mm 0.00 in0.0 mm
02:23 AM 46.2°F7.9°C 39.2°F4.0°C 81% 1.3 mph NNE2.1 kmh NNE 4.3 mph6.9 kmh 30.09 in1019.0 mb 0.00 in0.0 mm 0.00 in0.0 mm 0.00 in0.0 mm
02:02 AM 46.4°F8.0°C 39.4°F4.1°C 81% 1.3 mph NNE2.1 kmh NNE 3.1 mph5.0 kmh 30.09 in1019.0 mb 0.00 in0.0 mm 0.00 in0.0 mm 0.00 in0.0 mm
01:43 AM 46.6°F8.1°C 38.7°F3.7°C 79% 1.3 mph NW2.1 kmh NW 2.5 mph4.0 kmh 30.09 in1019.0 mb 0.00 in0.0 mm 0.00 in0.0 mm 0.00 in0.0 mm
01:22 AM 46.8°F8.2°C 38.5°F3.6°C 78% 1.3 mph WSW2.1 kmh WSW 3.1 mph5.0 kmh 30.09 in1019.0 mb 0.00 in0.0 mm 0.00 in0.0 mm 0.00 in0.0 mm
01:03 AM 46.9°F8.3°C 37.6°F3.1°C 75% 0.7 mph SSE1.1 kmh SSE 4.3 mph6.9 kmh 30.09 in1019.0 mb 0.00 in0.0 mm 0.00 in0.0 mm 0.00 in0.0 mm
12:42 AM 47.3°F8.5°C 38.3°F3.5°C 76% 1.8 mph WSW2.9 kmh WSW 6.3 mph10.1 kmh 30.08 in1018.6 mb 0.00 in0.0 mm 0.00 in0.0 mm 0.00 in0.0 mm
12:22 AM 47.7°F8.7°C 39.7°F4.3°C 79% 1.3 mph NNW2.1 kmh NNW 4.3 mph6.9 kmh 30.08 in1018.6 mb 0.00 in0.0 mm 0.00 in0.0 mm 0.00 in0.0 mm
12:02 AM 47.8°F8.8°C 39.9°F4.4°C 79% 1.3 mph NE2.1 kmh NE 4.9 mph7.9 kmh 30.07 in1018.3 mb 0.00 in0.0 mm 0.00 in0.0 mm 0.00 in0.0 mm